LiveATC.Net - Listen to live air traffic control over the Internet!


ICAO: KJKA  IATA: JKA   Airport: Jack Edwards National Airport
City: Gulf Shores   State/Province: Alabama
Country: United States   Continent: North America
KJKA METAR Weather: KJKA 240515Z AUTO 02003KT 10SM CLR 16/12 A3005 RMK AO2 T01590123
KJKA Flight Activity (FlightAware)
KJKA Airport Info   (iFlightPlanner)
KJKA VFR Sectional Chart   (iFlightPlanner) 
KJKA IFR Low Chart   (iFlightPlanner) 

KJKA CTAF
Feed Status: UP   Listeners: 0
Listen in your browser - HTML5 player (in browser, HTML5)
Click here to listen with your own player (launches your MP3 player)
Archive Access: KJKA CTAF
FacilityFrequency
Jack Edwards CTAF122.700
Feed sponsored by:

SkyWarrior Flight Training

SkyWarrior Flight Training and LiveATC.net


NOTICE

Unauthorized use prohibited. See LiveATC.net Terms of Service


Airport/ARTCC Code
Frequency Search
(e.g., 124.400, 128.75)
Site-wide search
 


Browse Feeds
Top 50 Feeds
HF Oceanic Feeds
Coverage Map
Bad Weather Areas

LiveATC FAQ
Offer LiveATC feed
Contact LiveATC.net
Press Inquiries

LiveATC on iPhone
LiveATC on Android

Windows Phone
Windows 8/10

LiveATC Mobile
(Mobile browser)

ATC Audio Archives
Interesting Recordings

LiveATC Forums


Home Page
About LiveATC.net
Make a Donation
Terms of Use
Privacy Policy

Canadian Air Freqs

AIRMETs/SIGMETs

FAA Airport Status
NAS Status
Arrival Demand


Server Software By:
Icecast.org
Liquidsoap